Time,TemperatureF,DewpointF,PressureIn,WindDirection,WindDirectionDegrees,WindSpeedMPH,WindSpeedGustMPH,Humidity,HourlyPrecipIn,Conditions,Clouds,dailyrainin,SolarRadiationWatts/m^2,SoftwareType,DateUTC
2013-07-04 00:02:00,64.0,63.0,-100.00,SSE,159,6.0,13.0,97,0.01,,,0.68,0.000000,,2013-07-04 04:02:00,
2013-07-04 00:33:00,64.0,63.0,-100.00,SSE,154,4.0,9.0,97,0.03,,,0.71,0.000000,,2013-07-04 04:33:00,
2013-07-04 00:43:00,64.0,63.0,-100.00,SSE,154,4.0,9.0,97,0.03,,,0.71,0.000000,,2013-07-04 04:43:00,
2013-07-04 00:52:00,64.0,63.0,-100.00,SSE,154,4.0,9.0,97,0.03,,,0.71,0.000000,,2013-07-04 04:52:00,
2013-07-04 01:02:00,64.0,63.0,-100.00,SSE,154,4.0,9.0,97,0.03,,,0.71,0.000000,,2013-07-04 05:02:00,
2013-07-04 01:33:00,64.0,63.0,-100.00,SSE,147,6.0,10.0,97,0.04,,,0.75,0.000000,,2013-07-04 05:33:00,
2013-07-04 01:43:00,64.0,63.0,-100.00,SSE,147,6.0,10.0,97,0.04,,,0.75,0.000000,,2013-07-04 05:43:00,
2013-07-04 01:52:00,64.0,63.0,-100.00,SSE,147,6.0,10.0,97,0.04,,,0.75,0.000000,,2013-07-04 05:52:00,
2013-07-04 02:01:00,64.0,63.0,-100.00,SSE,147,6.0,10.0,97,0.04,,,0.75,0.000000,,2013-07-04 06:01:00,
2013-07-04 02:34:00,64.0,63.0,-100.00,SSE,147,5.0,9.0,98,0.07,,,0.82,0.000000,,2013-07-04 06:34:00,
2013-07-04 02:43:00,64.0,63.0,-100.00,SSE,147,5.0,9.0,98,0.07,,,0.82,0.000000,,2013-07-04 06:43:00,
2013-07-04 02:53:00,64.0,63.0,-100.00,SSE,147,5.0,9.0,98,0.07,,,0.82,0.000000,,2013-07-04 06:53:00,
2013-07-04 03:02:00,64.0,63.0,-100.00,SSE,147,5.0,9.0,98,0.07,,,0.82,0.000000,,2013-07-04 07:02:00,
2013-07-04 03:34:00,65.0,64.0,-100.00,South,175,5.0,9.0,98,0.02,,,0.84,0.000000,,2013-07-04 07:34:00,
2013-07-04 03:43:00,65.0,64.0,-100.00,South,175,5.0,9.0,98,0.02,,,0.84,0.000000,,2013-07-04 07:43:00,
2013-07-04 03:52:00,65.0,64.0,-100.00,South,175,5.0,9.0,98,0.02,,,0.84,0.000000,,2013-07-04 07:52:00,
2013-07-04 04:02:00,65.0,64.0,-100.00,South,175,5.0,9.0,98,0.02,,,0.84,0.000000,,2013-07-04 08:02:00,
2013-07-04 04:33:00,65.0,64.0,-100.00,SE,136,4.0,10.0,98,0.04,,,0.88,0.000000,,2013-07-04 08:33:00,
2013-07-04 04:43:00,65.0,64.0,-100.00,SE,136,4.0,10.0,98,0.04,,,0.88,0.000000,,2013-07-04 08:43:00,
2013-07-04 04:53:00,65.0,64.0,-100.00,SE,136,4.0,10.0,98,0.04,,,0.88,0.000000,,2013-07-04 08:53:00,
2013-07-04 05:02:00,65.0,64.0,-100.00,SE,136,4.0,10.0,98,0.04,,,0.88,0.000000,,2013-07-04 09:02:00,
2013-07-04 05:42:00,65.0,64.0,-100.00,SE,145,6.0,10.0,98,0.00,,,0.88,0.000000,,2013-07-04 09:42:00,
2013-07-04 05:52:00,65.0,64.0,-100.00,SE,145,6.0,10.0,98,0.00,,,0.88,0.000000,,2013-07-04 09:52:00,
2013-07-04 06:01:00,65.0,64.0,-100.00,SE,145,6.0,10.0,98,0.00,,,0.88,0.000000,,2013-07-04 10:01:00,
2013-07-04 06:34:00,65.0,64.0,-100.00,SSE,148,5.0,12.0,97,0.01,,,0.89,0.000000,,2013-07-04 10:34:00,
2013-07-04 06:43:00,65.0,64.0,-100.00,SSE,148,5.0,12.0,97,0.01,,,0.89,0.000000,,2013-07-04 10:43:00,
2013-07-04 06:53:00,65.0,64.0,-100.00,SSE,148,5.0,12.0,97,0.01,,,0.89,0.000000,,2013-07-04 10:53:00,
2013-07-04 07:02:00,65.0,64.0,-100.00,SSE,148,5.0,12.0,97,0.01,,,0.89,0.000000,,2013-07-04 11:02:00,
2013-07-04 07:43:00,65.0,64.0,-100.00,SSE,150,5.0,11.0,97,0.01,,,0.90,2.000000,,2013-07-04 11:43:00,
2013-07-04 07:53:00,65.0,64.0,-100.00,SSE,150,5.0,11.0,97,0.01,,,0.90,2.000000,,2013-07-04 11:53:00,
2013-07-04 08:02:00,65.0,64.0,-100.00,SSE,150,5.0,11.0,97,0.01,,,0.90,2.000000,,2013-07-04 12:02:00,
2013-07-04 08:33:00,66.0,65.0,-100.00,SE,141,5.0,13.0,97,0.02,,,0.92,26.000000,,2013-07-04 12:33:00,
2013-07-04 08:43:00,66.0,65.0,-100.00,SE,141,5.0,13.0,97,0.02,,,0.92,26.000000,,2013-07-04 12:43:00,
2013-07-04 08:52:00,66.0,65.0,-100.00,SE,141,5.0,13.0,97,0.02,,,0.92,26.000000,,2013-07-04 12:52:00,
2013-07-04 09:02:00,66.0,65.0,-100.00,SE,141,5.0,13.0,97,0.02,,,0.92,26.000000,,2013-07-04 13:02:00,
2013-07-04 09:33:00,67.0,66.0,-100.00,SSE,147,5.0,10.0,97,0.02,,,0.94,70.000000,,2013-07-04 13:33:00,
2013-07-04 09:43:00,67.0,66.0,-100.00,SSE,147,5.0,10.0,97,0.02,,,0.94,70.000000,,2013-07-04 13:43:00,
2013-07-04 09:53:00,67.0,66.0,-100.00,SSE,147,5.0,10.0,97,0.02,,,0.94,70.000000,,2013-07-04 13:53:00,
2013-07-04 10:02:00,67.0,66.0,-100.00,SSE,147,5.0,10.0,97,0.02,,,0.94,70.000000,,2013-07-04 14:02:00,
2013-07-04 10:33:00,68.0,66.0,-100.00,SSE,148,6.0,12.0,94,0.00,,,0.94,199.000000,,2013-07-04 14:33:00,
2013-07-04 10:43:00,68.0,66.0,-100.00,SSE,148,6.0,12.0,94,0.00,,,0.94,199.000000,,2013-07-04 14:43:00,
2013-07-04 10:53:00,68.0,66.0,-100.00,SSE,148,6.0,12.0,94,0.00,,,0.94,199.000000,,2013-07-04 14:53:00,
2013-07-04 11:02:00,68.0,66.0,-100.00,SSE,148,6.0,12.0,94,0.00,,,0.94,199.000000,,2013-07-04 15:02:00,
2013-07-04 11:33:00,69.0,67.0,-100.00,SSE,147,7.0,12.0,94,0.00,,,0.94,205.000000,,2013-07-04 15:33:00,
2013-07-04 11:43:00,69.0,67.0,-100.00,SSE,147,7.0,12.0,94,0.00,,,0.94,205.000000,,2013-07-04 15:43:00,
2013-07-04 11:53:00,69.0,67.0,-100.00,SSE,147,7.0,12.0,94,0.00,,,0.94,205.000000,,2013-07-04 15:53:00,
2013-07-04 12:02:00,69.0,67.0,-100.00,SSE,147,7.0,12.0,94,0.00,,,0.94,205.000000,,2013-07-04 16:02:00,
2013-07-04 12:33:00,70.0,67.0,-100.00,SSE,152,5.0,12.0,91,0.00,,,0.91,221.000000,,2013-07-04 16:33:00,
2013-07-04 12:43:00,70.0,67.0,-100.00,SSE,152,5.0,12.0,91,0.00,,,0.91,221.000000,,2013-07-04 16:43:00,
2013-07-04 12:52:00,70.0,67.0,-100.00,SSE,152,5.0,12.0,91,0.00,,,0.91,221.000000,,2013-07-04 16:52:00,
2013-07-04 13:02:00,70.0,67.0,-100.00,SSE,152,5.0,12.0,91,0.00,,,0.91,221.000000,,2013-07-04 17:02:00,
2013-07-04 13:34:00,72.0,69.0,-100.00,SE,129,4.0,10.0,90,0.00,,,0.72,227.000000,,2013-07-04 17:34:00,
2013-07-04 13:43:00,72.0,69.0,-100.00,SE,129,4.0,10.0,90,0.00,,,0.72,227.000000,,2013-07-04 17:43:00,
2013-07-04 13:53:00,72.0,69.0,-100.00,SE,129,4.0,10.0,90,0.00,,,0.72,227.000000,,2013-07-04 17:53:00,
2013-07-04 14:01:00,72.0,69.0,-100.00,SE,129,4.0,10.0,90,0.00,,,0.72,227.000000,,2013-07-04 18:01:00,
2013-07-04 14:33:00,71.0,69.0,-100.00,SE,143,3.0,9.0,94,0.05,,,0.72,182.000000,,2013-07-04 18:33:00,
2013-07-04 14:43:00,71.0,69.0,-100.00,SE,143,3.0,9.0,94,0.05,,,0.72,182.000000,,2013-07-04 18:43:00,
2013-07-04 14:52:00,71.0,69.0,-100.00,SE,143,3.0,9.0,94,0.05,,,0.72,182.000000,,2013-07-04 18:52:00,
2013-07-04 15:02:00,71.0,69.0,-100.00,SE,143,3.0,9.0,94,0.05,,,0.72,182.000000,,2013-07-04 19:02:00,
2013-07-04 15:34:00,72.0,70.0,-100.00,SSE,152,4.0,8.0,94,0.04,,,0.65,348.000000,,2013-07-04 19:34:00,
2013-07-04 15:43:00,72.0,70.0,-100.00,SSE,152,4.0,8.0,94,0.04,,,0.65,348.000000,,2013-07-04 19:43:00,
2013-07-04 15:53:00,72.0,70.0,-100.00,SSE,152,4.0,8.0,94,0.04,,,0.65,348.000000,,2013-07-04 19:53:00,
2013-07-04 16:02:00,72.0,70.0,-100.00,SSE,152,4.0,8.0,94,0.04,,,0.65,348.000000,,2013-07-04 20:02:00,
2013-07-04 16:34:00,72.0,70.0,-100.00,SSE,152,4.0,8.0,92,0.01,,,0.53,227.000000,,2013-07-04 20:34:00,
2013-07-04 16:42:00,72.0,70.0,-100.00,SSE,152,4.0,8.0,92,0.01,,,0.53,227.000000,,2013-07-04 20:42:00,
2013-07-04 16:53:00,72.0,70.0,-100.00,SSE,152,4.0,8.0,92,0.01,,,0.53,227.000000,,2013-07-04 20:53:00,
2013-07-04 17:01:00,72.0,70.0,-100.00,SSE,152,4.0,8.0,92,0.01,,,0.53,227.000000,,2013-07-04 21:01:00,
2013-07-04 17:32:00,72.0,69.0,-100.00,SSE,161,5.0,9.0,91,0.00,,,0.44,174.000000,,2013-07-04 21:32:00,
2013-07-04 17:43:00,72.0,69.0,-100.00,SSE,161,5.0,9.0,91,0.00,,,0.44,174.000000,,2013-07-04 21:43:00,
2013-07-04 17:53:00,72.0,69.0,-100.00,SSE,161,5.0,9.0,91,0.00,,,0.44,174.000000,,2013-07-04 21:53:00,
2013-07-04 18:02:00,72.0,69.0,-100.00,SSE,161,5.0,9.0,91,0.00,,,0.44,174.000000,,2013-07-04 22:02:00,
2013-07-04 18:33:00,70.0,66.0,-100.00,SSE,151,3.0,10.0,88,0.02,,,0.45,172.000000,,2013-07-04 22:33:00,
2013-07-04 18:43:00,70.0,66.0,-100.00,SSE,151,3.0,10.0,88,0.02,,,0.45,172.000000,,2013-07-04 22:43:00,
2013-07-04 18:52:00,70.0,66.0,-100.00,SSE,151,3.0,10.0,88,0.02,,,0.45,172.000000,,2013-07-04 22:52:00,
2013-07-04 19:01:00,70.0,66.0,-100.00,SSE,151,3.0,10.0,88,0.02,,,0.45,172.000000,,2013-07-04 23:01:00,
2013-07-04 19:33:00,70.0,69.0,-100.00,NNE,12,0.0,5.0,96,0.02,,,0.47,75.000000,,2013-07-04 23:33:00,
2013-07-04 19:43:00,70.0,69.0,-100.00,NNE,12,0.0,5.0,96,0.02,,,0.47,75.000000,,2013-07-04 23:43:00,
2013-07-04 19:52:00,70.0,69.0,-100.00,NNE,12,0.0,5.0,96,0.02,,,0.47,75.000000,,2013-07-04 23:52:00,
2013-07-04 20:01:00,70.0,69.0,-100.00,NNE,12,0.0,5.0,96,0.02,,,0.47,75.000000,,2013-07-05 00:01:00,
2013-07-04 20:32:00,69.0,68.0,-100.00,SE,146,2.0,5.0,96,0.02,,,0.47,26.000000,,2013-07-05 00:32:00,
2013-07-04 20:43:00,69.0,68.0,-100.00,SE,146,2.0,5.0,96,0.02,,,0.47,26.000000,,2013-07-05 00:43:00,
2013-07-04 20:52:00,69.0,68.0,-100.00,SE,146,2.0,5.0,96,0.02,,,0.47,26.000000,,2013-07-05 00:52:00,
2013-07-04 21:01:00,69.0,68.0,-100.00,SE,146,2.0,5.0,96,0.02,,,0.47,26.000000,,2013-07-05 01:01:00,
2013-07-04 21:32:00,68.0,67.0,-100.00,SSE,165,3.0,8.0,97,0.20,,,0.67,5.000000,,2013-07-05 01:32:00,
2013-07-04 21:42:00,68.0,67.0,-100.00,SSE,165,3.0,8.0,97,0.20,,,0.67,5.000000,,2013-07-05 01:42:00,
2013-07-04 21:52:00,68.0,67.0,-100.00,SSE,165,3.0,8.0,97,0.20,,,0.67,5.000000,,2013-07-05 01:52:00,
2013-07-04 22:02:00,68.0,67.0,-100.00,SSE,165,3.0,8.0,97,0.20,,,0.67,5.000000,,2013-07-05 02:02:00,
2013-07-04 22:32:00,68.0,67.0,-100.00,SSE,154,0.0,9.0,98,0.03,,,0.66,0.000000,,2013-07-05 02:32:00,
2013-07-04 22:43:00,68.0,67.0,-100.00,SSE,154,0.0,9.0,98,0.03,,,0.66,0.000000,,2013-07-05 02:43:00,
2013-07-04 22:53:00,68.0,67.0,-100.00,SSE,154,0.0,9.0,98,0.03,,,0.66,0.000000,,2013-07-05 02:53:00,
2013-07-04 23:02:00,68.0,67.0,-100.00,SSE,154,0.0,9.0,98,0.03,,,0.66,0.000000,,2013-07-05 03:02:00,
2013-07-04 23:33:00,67.0,66.0,-100.00,SE,146,4.0,9.0,98,0.14,,,0.79,0.000000,,2013-07-05 03:33:00,
2013-07-04 23:42:00,67.0,66.0,-100.00,SE,146,4.0,9.0,98,0.14,,,0.79,0.000000,,2013-07-05 03:42:00,
2013-07-04 23:52:00,67.0,66.0,-100.00,SE,146,4.0,9.0,98,0.14,,,0.79,0.000000,,2013-07-05 03:52:00,